Time;durP1;ratioP1;P1;durP2;ratioP2;P2;SDS_P1;SDS_P2;PMS_P1;PMS_P2;Temp;Humidity;BMP_temperature;BMP_pressure;BME280_temperature;BME280_humidity;BME280_pressure;Samples;Min_cycle;Max_cycle;Signal;HPM_P1;HPM_P2
2022/06/26 00:02:49;;;;;;;14.75;3.92;;;;;17.40;96163.00;;;;8356278;28;20228;-75
2022/06/26 00:06:52;;;;;;;9.13;3.50;;;;;17.30;96160.00;;;;8354113;28;20209;-78
2022/06/26 00:10:55;;;;;;;3.97;3.67;;;;;17.20;96162.00;;;;8354571;28;20204;-75
2022/06/26 00:15:00;;;;;;;6.32;4.18;;;;;17.20;96152.00;;;;8353375;28;20284;-77
2022/06/26 00:19:03;;;;;;;3.45;3.10;;;;;17.10;96151.00;;;;8354869;28;20299;-78
2022/06/26 00:23:06;;;;;;;6.78;3.38;;;;;17.20;96149.00;;;;8355808;28;20737;-78
2022/06/26 00:27:10;;;;;;;13.25;3.70;;;;;17.10;96148.00;;;;8353043;28;20892;-76
2022/06/26 00:31:14;;;;;;;9.15;3.13;;;;;17.10;96146.00;;;;8354872;28;20277;-78
2022/06/26 00:35:18;;;;;;;4.88;3.15;;;;;17.00;96135.00;;;;8354573;28;20200;-78
2022/06/26 00:39:20;;;;;;;4.15;3.80;;;;;16.90;96148.00;;;;8355038;28;20246;-77
2022/06/26 00:43:27;;;;;;;6.55;3.30;;;;;16.90;96158.00;;;;8355299;28;20208;-76
2022/06/26 00:47:32;;;;;;;8.38;3.20;;;;;16.90;96157.00;;;;8354020;28;20200;-77
2022/06/26 00:51:38;;;;;;;6.45;3.50;;;;;16.90;96156.00;;;;8352893;28;20275;-76
2022/06/26 00:55:41;;;;;;;6.53;3.80;;;;;16.90;96164.00;;;;8354929;28;20212;-75
2022/06/26 00:59:45;;;;;;;10.20;4.70;;;;;16.80;96170.00;;;;8354813;28;20232;-77
2022/06/26 01:03:50;;;;;;;16.08;4.20;;;;;16.70;96169.00;;;;8350182;28;20781;-75
2022/06/26 01:07:53;;;;;;;12.65;3.88;;;;;16.60;96158.00;;;;8350764;28;20204;-76
2022/06/26 01:11:56;;;;;;;7.78;3.70;;;;;16.50;96163.00;;;;8353442;28;20207;-77
2022/06/26 01:15:59;;;;;;;10.30;4.50;;;;;16.40;96167.00;;;;8351909;28;20208;-77
2022/06/26 01:20:06;;;;;;;11.20;4.68;;;;;16.40;96172.00;;;;8351314;28;20228;-78
2022/06/26 01:24:11;;;;;;;8.82;4.00;;;;;16.40;96174.00;;;;8350007;28;20205;-76
2022/06/26 01:28:16;;;;;;;9.95;4.45;;;;;16.40;96174.00;;;;8352530;28;20231;-76
2022/06/26 01:32:20;;;;;;;8.95;3.60;;;;;16.40;96184.00;;;;8355019;28;20192;-76
2022/06/26 01:36:23;;;;;;;5.95;3.92;;;;;16.30;96173.00;;;;8352859;28;20300;-76
2022/06/26 01:40:28;;;;;;;7.72;4.20;;;;;16.30;96184.00;;;;8354160;28;20299;-77
2022/06/26 01:44:31;;;;;;;9.73;4.38;;;;;16.20;96175.00;;;;8345470;28;20205;-78
2022/06/26 01:48:37;;;;;;;15.93;4.13;;;;;16.20;96188.00;;;;8353619;28;20212;-77
2022/06/26 01:52:40;;;;;;;16.55;3.92;;;;;16.10;96201.00;;;;8352968;28;20225;-74
2022/06/26 01:56:45;;;;;;;10.73;4.15;;;;;16.10;96191.00;;;;8351818;28;20643;-77
2022/06/26 02:00:50;;;;;;;14.98;4.50;;;;;16.10;96184.00;;;;8352524;28;20256;-78
2022/06/26 02:04:53;;;;;;;8.25;4.25;;;;;16.00;96188.00;;;;8349523;28;20236;-75
2022/06/26 02:08:57;;;;;;;10.10;4.10;;;;;16.00;96207.00;;;;8356210;28;20649;-77
2022/06/26 02:17:22;;;;;;;11.45;4.47;;;;;15.90;96209.00;;;;8348221;28;20229;-76
2022/06/26 02:21:28;;;;;;;6.13;4.38;;;;;15.90;96201.00;;;;8356168;28;20551;-76
2022/06/26 02:25:31;;;;;;;8.00;4.10;;;;;15.90;96198.00;;;;8358921;28;20199;-77
2022/06/26 02:29:36;;;;;;;23.92;4.63;;;;;15.90;96202.00;;;;8362757;28;20204;-78
2022/06/26 02:33:39;;;;;;;12.48;4.55;;;;;15.80;96209.00;;;;8362550;28;20207;-77
2022/06/26 02:37:42;;;;;;;15.50;4.75;;;;;15.80;96218.00;;;;8362633;28;20199;-77
2022/06/26 02:41:45;;;;;;;11.13;4.07;;;;;15.80;96218.00;;;;8363292;28;20227;-78
2022/06/26 02:45:50;;;;;;;9.25;4.10;;;;;15.70;96213.00;;;;8363087;28;20207;-76
2022/06/26 02:49:53;;;;;;;7.53;4.03;;;;;15.70;96213.00;;;;8362502;28;20200;-78
2022/06/26 02:53:57;;;;;;;41.88;5.05;;;;;15.70;96217.00;;;;8365674;28;20356;-78
2022/06/26 02:58:00;;;;;;;12.82;4.50;;;;;15.70;96228.00;;;;8362637;28;20208;-78
2022/06/26 03:02:05;;;;;;;16.35;3.97;;;;;15.60;96222.00;;;;8377171;22;20236;-77
2022/06/26 03:06:08;;;;;;;15.20;4.25;;;;;15.70;96233.00;;;;8350767;28;20215;-78
2022/06/26 03:10:12;;;;;;;18.27;4.50;;;;;15.70;96231.00;;;;8353458;28;20207;-79
2022/06/26 03:14:16;;;;;;;11.32;4.20;;;;;15.60;96235.00;;;;8355433;28;20697;-71
2022/06/26 03:18:21;;;;;;;16.05;4.45;;;;;15.60;96229.00;;;;8364969;28;20256;-77
2022/06/26 03:22:24;;;;;;;9.73;4.25;;;;;15.60;96232.00;;;;8342134;28;20912;-78
2022/06/26 03:26:27;;;;;;;23.15;4.95;;;;;15.60;96245.00;;;;8348132;28;20654;-77
2022/06/26 03:30:30;;;;;;;25.30;4.75;;;;;15.50;96249.00;;;;8357028;28;20316;-78
2022/06/26 03:34:35;;;;;;;11.63;4.50;;;;;15.50;96252.00;;;;8352951;28;20196;-78
2022/06/26 03:38:38;;;;;;;10.32;4.57;;;;;15.60;96250.00;;;;8356731;28;20215;-77
2022/06/26 03:42:42;;;;;;;9.90;4.13;;;;;15.60;96255.00;;;;8355326;28;20306;-77
2022/06/26 03:46:45;;;;;;;6.63;4.20;;;;;15.70;96257.00;;;;8350562;28;20205;-78
2022/06/26 03:50:50;;;;;;;8.93;4.20;;;;;15.90;96256.00;;;;8360990;28;20663;-77
2022/06/26 03:54:54;;;;;;;11.90;3.60;;;;;16.20;96266.00;;;;8356792;28;20208;-77
2022/06/26 03:58:57;;;;;;;8.02;4.05;;;;;16.40;96269.00;;;;8351945;28;20283;-77
2022/06/26 04:03:03;;;;;;;11.10;3.70;;;;;16.60;96264.00;;;;8356578;28;20319;-77
2022/06/26 04:07:08;;;;;;;10.55;4.10;;;;;16.80;96267.00;;;;8354278;28;20204;-77
2022/06/26 04:11:11;;;;;;;5.07;3.67;;;;;17.10;96270.00;;;;8354982;28;20231;-77
2022/06/26 04:15:14;;;;;;;16.08;3.47;;;;;17.50;96268.00;;;;8347597;28;20619;-77
2022/06/26 04:19:17;;;;;;;7.07;3.10;;;;;17.90;96272.00;;;;8355677;28;20279;-79
2022/06/26 04:23:22;;;;;;;8.43;3.40;;;;;18.40;96264.00;;;;8354810;28;20316;-78
2022/06/26 04:27:25;;;;;;;6.65;3.00;;;;;18.80;96266.00;;;;8352161;28;20208;-77
2022/06/26 04:31:28;;;;;;;6.30;3.40;;;;;19.10;96266.00;;;;8350672;28;20197;-76
2022/06/26 04:35:32;;;;;;;4.72;3.30;;;;;19.70;96269.00;;;;8354382;28;20697;-78
2022/06/26 04:39:36;;;;;;;6.60;3.10;;;;;20.00;96278.00;;;;8349096;28;20781;-78
2022/06/26 04:43:40;;;;;;;8.23;2.97;;;;;20.60;96267.00;;;;8352238;28;20264;-77
2022/06/26 04:47:43;;;;;;;5.28;3.00;;;;;21.10;96267.00;;;;8351245;28;20196;-76
2022/06/26 04:51:46;;;;;;;3.63;3.20;;;;;21.40;96261.00;;;;8339616;28;20939;-76
2022/06/26 04:55:51;;;;;;;15.60;3.60;;;;;21.50;96265.00;;;;8349134;28;20246;-77
2022/06/26 04:59:54;;;;;;;11.43;3.30;;;;;21.30;96266.00;;;;8348128;28;20199;-77
2022/06/26 05:03:58;;;;;;;3.35;2.70;;;;;21.00;96277.00;;;;8347207;28;20304;-79
2022/06/26 05:08:01;;;;;;;6.88;2.78;;;;;21.10;96279.00;;;;8346778;28;20834;-78
2022/06/26 05:12:07;;;;;;;6.93;3.03;;;;;21.20;96288.00;;;;8346048;28;20213;-77
2022/06/26 05:16:10;;;;;;;6.35;2.63;;;;;21.30;96285.00;;;;8348127;28;20287;-75
2022/06/26 05:20:14;;;;;;;6.63;2.80;;;;;21.70;96289.00;;;;8346912;28;20567;-77
2022/06/26 05:24:17;;;;;;;7.53;3.05;;;;;21.90;96289.00;;;;8348845;28;20200;-77
2022/06/26 05:28:22;;;;;;;5.90;3.00;;;;;22.20;96299.00;;;;8343432;28;20287;-78
2022/06/26 05:32:25;;;;;;;6.03;3.45;;;;;22.40;96298.00;;;;8349169;28;20821;-75
2022/06/26 05:36:28;;;;;;;4.35;3.47;;;;;22.90;96303.00;;;;8348108;28;20205;-76
2022/06/26 05:40:32;;;;;;;11.65;4.35;;;;;23.50;96304.00;;;;8345187;28;20227;-76
2022/06/26 05:44:36;;;;;;;8.30;4.15;;;;;24.20;96300.00;;;;8348136;28;20216;-76
2022/06/26 05:48:39;;;;;;;7.72;3.58;;;;;25.10;96296.00;;;;8337364;28;20204;-77
2022/06/26 05:52:43;;;;;;;4.00;3.70;;;;;25.80;96288.00;;;;8347276;28;20200;-77
2022/06/26 05:56:51;;;;;;;4.57;4.18;;;;;26.20;96301.00;;;;8348412;28;20208;-79
2022/06/26 06:00:56;;;;;;;4.50;3.97;;;;;26.70;96297.00;;;;8348185;28;20231;-78
2022/06/26 06:04:59;;;;;;;5.65;3.55;;;;;27.20;96300.00;;;;8350456;28;20331;-78
2022/06/26 06:09:02;;;;;;;7.38;3.85;;;;;27.70;96300.00;;;;8348070;28;20319;-77
2022/06/26 06:13:05;;;;;;;4.32;3.97;;;;;28.20;96308.00;;;;8348364;28;20197;-81
2022/06/26 06:21:45;;;;;;;4.00;3.00;;;;;29.10;96326.00;;;;8238503;28;20342;-77
2022/06/26 06:25:49;;;;;;;3.17;2.90;;;;;29.30;96328.00;;;;8287999;28;20676;-80
2022/06/26 06:29:52;;;;;;;2.83;2.63;;;;;29.50;96329.00;;;;8346276;28;20279;-78
2022/06/26 06:33:57;;;;;;;4.75;2.88;;;;;29.60;96330.00;;;;8349845;28;20196;-75
2022/06/26 06:38:00;;;;;;;5.03;3.17;;;;;29.70;96321.00;;;;8341733;28;22505;-78
2022/06/26 06:42:03;;;;;;;4.28;2.55;;;;;29.70;96332.00;;;;8348875;28;20765;-77
2022/06/26 06:46:07;;;;;;;3.65;2.67;;;;;29.90;96330.00;;;;8351971;28;20224;-75
2022/06/26 06:50:11;;;;;;;2.60;2.45;;;;;30.00;96334.00;;;;8348569;28;20283;-75
2022/06/26 06:54:15;;;;;;;2.83;2.63;;;;;30.20;96335.00;;;;8345687;28;20201;-74
2022/06/26 06:58:18;;;;;;;2.50;2.28;;;;;30.20;96339.00;;;;8354669;28;20292;-74
2022/06/26 07:02:22;;;;;;;2.20;2.10;;;;;30.30;96337.00;;;;8348616;28;20316;-73
2022/06/26 07:06:27;;;;;;;2.70;2.22;;;;;30.50;96335.00;;;;8349722;28;20650;-73
2022/06/26 07:10:30;;;;;;;2.70;2.50;;;;;31.00;96341.00;;;;8348746;28;20206;-73
2022/06/26 07:14:33;;;;;;;2.30;2.03;;;;;31.50;96341.00;;;;8351902;28;20193;-73
2022/06/26 07:18:37;;;;;;;4.80;2.25;;;;;31.70;96349.00;;;;8352524;28;20207;-73
2022/06/26 07:22:42;;;;;;;2.65;1.85;;;;;31.90;96350.00;;;;8350593;28;20224;-76
2022/06/26 07:26:45;;;;;;;2.33;1.70;;;;;31.90;96341.00;;;;8345485;28;20254;-78
2022/06/26 07:30:48;;;;;;;2.53;1.80;;;;;32.30;96340.00;;;;8350128;28;20205;-78
2022/06/26 07:34:52;;;;;;;5.38;2.15;;;;;32.40;96340.00;;;;8350142;28;20323;-79
2022/06/26 07:38:56;;;;;;;2.90;1.80;;;;;32.40;96340.00;;;;8353810;28;20236;-78
2022/06/26 07:43:00;;;;;;;2.33;2.00;;;;;32.70;96349.00;;;;8348529;28;20315;-79
2022/06/26 07:47:03;;;;;;;1.95;1.58;;;;;33.10;96359.00;;;;8351772;28;20203;-77
2022/06/26 07:51:07;;;;;;;2.90;2.00;;;;;33.40;96352.00;;;;8337776;28;20901;-77
2022/06/26 07:55:12;;;;;;;4.45;1.80;;;;;33.60;96342.00;;;;8349198;28;20855;-79
2022/06/26 07:59:16;;;;;;;2.10;2.00;;;;;34.00;96344.00;;;;8352497;28;20597;-78
2022/06/26 08:03:19;;;;;;;1.98;1.88;;;;;34.10;96343.00;;;;8355743;28;20319;-79
2022/06/26 08:07:22;;;;;;;6.43;1.98;;;;;34.10;96345.00;;;;8350663;28;20294;-77
2022/06/26 08:11:27;;;;;;;1.70;1.60;;;;;34.20;96345.00;;;;8345581;28;20644;-78
2022/06/26 08:15:30;;;;;;;2.40;1.88;;;;;34.40;96345.00;;;;8333697;28;20559;-76
2022/06/26 08:19:34;;;;;;;1.95;1.73;;;;;34.20;96346.00;;;;8346390;28;20296;-76
2022/06/26 08:23:37;;;;;;;4.07;1.80;;;;;34.30;96345.00;;;;8351042;28;20307;-77
2022/06/26 08:27:42;;;;;;;1.83;1.70;;;;;34.70;96344.00;;;;8352106;28;20197;-74
2022/06/26 08:31:45;;;;;;;1.73;1.50;;;;;35.10;96342.00;;;;8349138;28;20234;-74
2022/06/26 08:35:48;;;;;;;1.70;1.55;;;;;35.40;96345.00;;;;8351934;28;20284;-75
2022/06/26 08:39:52;;;;;;;1.70;1.60;;;;;35.60;96337.00;;;;8351539;28;20677;-75
2022/06/26 08:44:02;;;;;;;1.70;1.50;;;;;35.70;96335.00;;;;8352474;28;20719;-74
2022/06/26 08:48:08;;;;;;;1.63;1.52;;;;;35.90;96343.00;;;;8352426;28;20658;-75
2022/06/26 08:52:14;;;;;;;2.50;1.35;;;;;35.70;96340.00;;;;8349717;28;20236;-75
2022/06/26 08:56:18;;;;;;;1.70;1.48;;;;;35.80;96339.00;;;;8347190;28;20231;-74
2022/06/26 09:00:23;;;;;;;1.38;1.38;;;;;36.20;96339.00;;;;8349186;28;20875;-77
2022/06/26 09:04:32;;;;;;;1.98;1.60;;;;;36.50;96341.00;;;;8347885;28;20283;-77
2022/06/26 09:08:44;;;;;;;1.85;1.70;;;;;36.50;96333.00;;;;8350410;28;20212;-76
2022/06/26 09:12:54;;;;;;;1.60;1.50;;;;;36.10;96341.00;;;;8347433;28;20197;-77
2022/06/26 09:16:59;;;;;;;2.58;1.50;;;;;36.20;96339.00;;;;8344551;28;20197;-77
2022/06/26 09:21:08;;;;;;;4.82;1.52;;;;;36.50;96336.00;;;;8350253;28;20976;-77
2022/06/26 09:25:11;;;;;;;1.98;1.75;;;;;36.50;96351.00;;;;8349055;28;20228;-77
2022/06/26 09:29:17;;;;;;;1.40;1.30;;;;;36.40;96340.00;;;;8351238;28;20276;-78
2022/06/26 09:33:23;;;;;;;1.20;1.20;;;;;36.50;96340.00;;;;8342366;28;20642;-76
2022/06/26 09:37:37;;;;;;;3.40;1.60;;;;;36.40;96344.00;;;;8350310;28;20200;-78
2022/06/26 09:42:04;;;;;;;1.58;1.58;;;;;36.90;96331.00;;;;8349360;28;20228;-77
2022/06/26 09:46:09;;;;;;;1.30;1.30;;;;;36.90;96325.00;;;;8341496;28;20221;-76
2022/06/26 09:50:14;;;;;;;1.70;1.60;;;;;37.50;96326.00;;;;8344033;28;20212;-76
2022/06/26 09:54:18;;;;;;;2.28;1.10;;;;;37.80;96325.00;;;;8345604;28;20275;-76
2022/06/26 09:58:22;;;;;;;1.70;1.60;;;;;37.70;96335.00;;;;8344844;28;20690;-75
2022/06/26 10:06:49;;;;;;;1.38;1.35;;;;;37.90;96331.00;;;;8341582;28;20227;-75
2022/06/26 10:10:53;;;;;;;1.30;1.30;;;;;38.00;96335.00;;;;8345545;28;20867;-76
2022/06/26 10:15:02;;;;;;;1.98;1.20;;;;;38.10;96329.00;;;;8347611;28;20266;-73
2022/06/26 10:19:21;;;;;;;1.20;1.20;;;;;38.40;96331.00;;;;8339578;28;20296;-76
2022/06/26 10:23:33;;;;;;;1.30;1.20;;;;;38.50;96334.00;;;;8348321;28;20231;-75
2022/06/26 10:27:39;;;;;;;2.88;1.40;;;;;38.90;96335.00;;;;8341651;28;20285;-74
2022/06/26 10:31:48;;;;;;;1.48;1.30;;;;;38.60;96340.00;;;;8353418;28;20725;-75
2022/06/26 10:35:54;;;;;;;3.92;1.95;;;;;38.50;96331.00;;;;8352728;28;20197;-74
2022/06/26 10:40:00;;;;;;;1.20;1.20;;;;;38.40;96330.00;;;;8355844;28;20200;-73
2022/06/26 10:44:05;;;;;;;1.35;1.35;;;;;38.30;96331.00;;;;8351493;28;20227;-74
2022/06/26 10:48:19;;;;;;;4.07;2.55;;;;;38.80;96331.00;;;;8346389;28;20206;-73
2022/06/26 10:52:27;;;;;;;1.75;1.65;;;;;39.40;96327.00;;;;8354423;28;20805;-75
2022/06/26 10:56:32;;;;;;;1.42;1.42;;;;;39.40;96323.00;;;;8355119;28;20200;-74
2022/06/26 11:00:35;;;;;;;1.45;1.45;;;;;39.00;96324.00;;;;8356610;28;20285;-74
2022/06/26 11:04:46;;;;;;;1.80;1.70;;;;;39.10;96322.00;;;;8349194;28;20327;-73
2022/06/26 11:08:51;;;;;;;1.55;1.45;;;;;39.10;96316.00;;;;8349440;28;20232;-73
2022/06/26 11:12:55;;;;;;;1.40;1.40;;;;;39.20;96314.00;;;;8350528;28;20305;-73
2022/06/26 11:16:59;;;;;;;1.33;1.27;;;;;39.00;96318.00;;;;8344933;28;20199;-74
2022/06/26 11:21:03;;;;;;;1.10;1.10;;;;;39.30;96313.00;;;;8349988;28;20280;-74
2022/06/26 11:25:07;;;;;;;1.52;1.40;;;;;39.00;96308.00;;;;8349788;28;20224;-74
2022/06/26 11:29:12;;;;;;;1.23;1.23;;;;;39.20;96304.00;;;;8340536;28;20201;-74
2022/06/26 11:33:25;;;;;;;1.30;1.30;;;;;39.50;96303.00;;;;8348890;28;20197;-73
2022/06/26 11:37:35;;;;;;;1.35;1.00;;;;;39.70;96309.00;;;;8344956;28;20843;-74
2022/06/26 11:41:40;;;;;;;1.00;1.00;;;;;39.80;96295.00;;;;8343057;28;20205;-74
2022/06/26 11:45:45;;;;;;;1.02;1.00;;;;;40.20;96305.00;;;;8351278;28;20228;-74
2022/06/26 11:49:49;;;;;;;0.90;0.90;;;;;40.30;96307.00;;;;8343230;28;20288;-73
2022/06/26 11:53:52;;;;;;;1.10;1.00;;;;;40.50;96302.00;;;;8352199;28;20636;-74
2022/06/26 11:57:56;;;;;;;1.13;1.00;;;;;40.70;96313.00;;;;8343401;28;20204;-73
2022/06/26 12:02:00;;;;;;;1.02;1.00;;;;;40.70;96297.00;;;;8344546;28;20240;-74
2022/06/26 12:06:04;;;;;;;1.02;1.02;;;;;41.00;96300.00;;;;8348589;28;20252;-74
2022/06/26 12:10:08;;;;;;;0.88;0.88;;;;;41.00;96295.00;;;;8347458;28;20597;-75
2022/06/26 12:14:11;;;;;;;0.90;0.90;;;;;41.10;96283.00;;;;8346630;28;20205;-74
2022/06/26 12:18:16;;;;;;;2.85;1.27;;;;;41.10;96286.00;;;;8348037;28;20207;-75
2022/06/26 12:22:27;;;;;;;1.00;1.00;;;;;41.20;96296.00;;;;8347599;28;20212;-75
2022/06/26 12:26:37;;;;;;;1.17;1.17;;;;;41.10;96288.00;;;;8341096;28;20319;-75
2022/06/26 12:30:41;;;;;;;1.10;1.10;;;;;41.00;96304.00;;;;8340650;28;20280;-76
2022/06/26 12:34:46;;;;;;;1.13;1.00;;;;;40.90;96287.00;;;;8331701;28;20204;-75
2022/06/26 12:38:49;;;;;;;1.10;1.10;;;;;40.80;96289.00;;;;8351096;28;20233;-75
2022/06/26 12:42:53;;;;;;;0.90;0.90;;;;;40.70;96283.00;;;;8344098;28;20196;-74
2022/06/26 12:46:56;;;;;;;1.10;1.10;;;;;40.60;96283.00;;;;8351552;28;20312;-76
2022/06/26 12:51:00;;;;;;;1.52;1.00;;;;;40.40;96286.00;;;;8351165;28;20192;-75
2022/06/26 12:55:06;;;;;;;0.93;0.93;;;;;39.90;96282.00;;;;8350288;28;20743;-74
2022/06/26 12:59:09;;;;;;;1.55;1.02;;;;;39.00;96280.00;;;;8351451;28;20589;-75
2022/06/26 13:03:12;;;;;;;1.00;1.00;;;;;38.20;96267.00;;;;8345624;28;20228;-75
2022/06/26 13:07:17;;;;;;;0.93;0.93;;;;;37.80;96271.00;;;;8344445;28;20207;-74
2022/06/26 13:11:27;;;;;;;1.00;1.00;;;;;37.30;96269.00;;;;8351425;28;20308;-74
2022/06/26 13:15:31;;;;;;;1.33;0.80;;;;;37.90;96265.00;;;;8345030;28;20254;-73
2022/06/26 13:19:34;;;;;;;0.95;0.95;;;;;38.60;96260.00;;;;8349745;28;20287;-73
2022/06/26 13:23:39;;;;;;;0.77;0.77;;;;;39.10;96257.00;;;;8346926;28;20232;-71
2022/06/26 13:27:42;;;;;;;0.98;0.98;;;;;39.60;96260.00;;;;8344287;28;20205;-72
2022/06/26 13:31:45;;;;;;;1.00;1.00;;;;;39.80;96262.00;;;;8347951;28;20219;-75
2022/06/26 13:35:49;;;;;;;1.00;0.85;;;;;40.20;96263.00;;;;8348021;28;20193;-75
2022/06/26 13:39:54;;;;;;;2.92;1.00;;;;;40.60;96263.00;;;;8348488;28;20667;-74
2022/06/26 13:43:57;;;;;;;0.80;0.80;;;;;41.00;96253.00;;;;8349157;28;20720;-73
2022/06/26 13:48:00;;;;;;;1.77;1.00;;;;;41.00;96251.00;;;;8350019;28;21138;-73
2022/06/26 13:52:04;;;;;;;1.98;1.10;;;;;40.80;96246.00;;;;8349043;28;20201;-73
2022/06/26 13:56:09;;;;;;;1.23;1.00;;;;;40.80;96252.00;;;;8351158;28;20283;-73
2022/06/26 14:00:13;;;;;;;0.80;0.80;;;;;40.70;96247.00;;;;8348811;28;20270;-73
2022/06/26 14:04:16;;;;;;;0.90;0.90;;;;;40.60;96247.00;;;;8350225;28;20228;-73
2022/06/26 14:08:19;;;;;;;3.30;0.95;;;;;40.80;96239.00;;;;8349760;28;20212;-74
2022/06/26 14:12:24;;;;;;;0.77;0.77;;;;;41.10;96240.00;;;;8349634;28;20288;-73
2022/06/26 14:16:27;;;;;;;1.23;0.88;;;;;41.20;96242.00;;;;8350106;28;20280;-73
2022/06/26 14:20:30;;;;;;;1.60;0.98;;;;;41.30;96240.00;;;;8342666;28;20190;-73
2022/06/26 14:28:55;;;;;;;1.45;0.90;;;;;41.20;96234.00;;;;8349091;28;20203;-74
2022/06/26 14:32:58;;;;;;;1.10;1.00;;;;;41.20;96222.00;;;;8335771;28;20250;-73
2022/06/26 14:37:02;;;;;;;0.70;0.70;;;;;41.10;96223.00;;;;8346736;28;20215;-72
2022/06/26 14:41:06;;;;;;;0.80;0.80;;;;;41.40;96227.00;;;;8344848;28;20221;-73
2022/06/26 14:45:17;;;;;;;0.90;0.90;;;;;41.10;96227.00;;;;8349034;28;20312;-74
2022/06/26 14:49:20;;;;;;;0.90;0.90;;;;;41.00;96217.00;;;;8342276;28;20196;-73
2022/06/26 14:53:24;;;;;;;0.80;0.80;;;;;41.20;96214.00;;;;8347417;28;20309;-74
2022/06/26 14:57:27;;;;;;;0.77;0.77;;;;;41.10;96211.00;;;;8342799;28;20236;-74
2022/06/26 15:01:32;;;;;;;1.05;0.90;;;;;41.30;96213.00;;;;8348943;28;20217;-73
2022/06/26 15:05:35;;;;;;;0.70;0.70;;;;;41.20;96207.00;;;;8348513;28;20248;-74
2022/06/26 15:09:39;;;;;;;2.05;1.00;;;;;40.80;96208.00;;;;8351828;28;20561;-72
2022/06/26 15:13:42;;;;;;;1.67;1.00;;;;;40.70;96208.00;;;;8349763;28;20216;-73
2022/06/26 15:17:46;;;;;;;0.82;0.82;;;;;40.60;96206.00;;;;8350098;28;20209;-74
2022/06/26 15:21:56;;;;;;;0.80;0.80;;;;;40.60;96201.00;;;;8351771;28;20231;-73
2022/06/26 15:26:01;;;;;;;0.90;0.90;;;;;40.30;96202.00;;;;8355648;28;20230;-73
2022/06/26 15:30:05;;;;;;;0.90;0.90;;;;;40.20;96203.00;;;;8343963;28;20207;-73
2022/06/26 15:34:10;;;;;;;0.93;0.93;;;;;40.30;96187.00;;;;8351214;28;20219;-73
2022/06/26 15:38:13;;;;;;;2.10;1.00;;;;;40.40;96196.00;;;;8352681;28;20331;-71
2022/06/26 15:42:16;;;;;;;1.00;0.88;;;;;40.70;96181.00;;;;8352628;28;20313;-73
2022/06/26 15:46:20;;;;;;;1.73;1.60;;;;;40.60;96183.00;;;;8353246;28;20303;-73
2022/06/26 15:50:25;;;;;;;1.15;1.15;;;;;40.70;96185.00;;;;8352925;28;20643;-74
2022/06/26 15:54:29;;;;;;;2.60;1.08;;;;;40.80;96178.00;;;;8346599;28;20220;-73
2022/06/26 15:58:32;;;;;;;2.15;1.40;;;;;41.00;96181.00;;;;8356327;28;20861;-73
2022/06/26 16:02:36;;;;;;;2.60;1.60;;;;;40.90;96179.00;;;;8346327;28;20220;-74
2022/06/26 16:06:41;;;;;;;1.58;1.30;;;;;40.70;96168.00;;;;8352851;28;20311;-72
2022/06/26 16:10:44;;;;;;;1.10;1.10;;;;;40.60;96171.00;;;;8345537;28;21110;-73
2022/06/26 16:14:49;;;;;;;1.30;1.20;;;;;40.30;96160.00;;;;8345343;28;20600;-72
2022/06/26 16:18:56;;;;;;;1.00;1.00;;;;;40.20;96163.00;;;;8347505;28;20197;-72
2022/06/26 16:27:22;;;;;;;1.02;1.02;;;;;40.30;96164.00;;;;8346901;28;20232;-71
2022/06/26 16:31:27;;;;;;;1.67;1.00;;;;;40.50;96162.00;;;;8346986;28;20207;-72
2022/06/26 16:35:31;;;;;;;1.05;1.05;;;;;40.40;96152.00;;;;8336267;28;20204;-72
2022/06/26 16:39:36;;;;;;;1.10;1.00;;;;;40.40;96150.00;;;;8349387;28;21063;-73
2022/06/26 16:43:41;;;;;;;1.40;0.90;;;;;40.60;96146.00;;;;8346402;28;20207;-72
2022/06/26 16:47:44;;;;;;;2.13;1.10;;;;;40.80;96148.00;;;;8341113;28;20232;-72
2022/06/26 16:51:48;;;;;;;1.95;1.10;;;;;40.90;96147.00;;;;8347570;28;20618;-72
2022/06/26 16:55:53;;;;;;;0.98;0.98;;;;;41.10;96143.00;;;;8350089;28;20200;-74
2022/06/26 16:59:57;;;;;;;2.17;1.52;;;;;41.10;96147.00;;;;8342247;28;20200;-73
2022/06/26 17:04:00;;;;;;;1.10;1.10;;;;;41.10;96158.00;;;;8354425;28;20231;-72
2022/06/26 17:08:04;;;;;;;1.00;1.00;;;;;41.00;96154.00;;;;8372403;28;20226;-74
2022/06/26 17:12:10;;;;;;;3.80;1.20;;;;;40.70;96154.00;;;;8380392;28;20849;-74
2022/06/26 17:16:14;;;;;;;2.40;0.90;;;;;40.80;96151.00;;;;8376540;28;21075;-74
2022/06/26 17:20:19;;;;;;;1.45;1.00;;;;;40.80;96148.00;;;;8363901;28;20209;-70
2022/06/26 17:24:23;;;;;;;1.00;1.00;;;;;40.70;96149.00;;;;8376790;28;20219;-72
2022/06/26 17:28:27;;;;;;;1.73;1.02;;;;;40.80;96146.00;;;;8374405;28;20224;-73
2022/06/26 17:32:31;;;;;;;3.33;1.00;;;;;40.80;96148.00;;;;8380985;28;20196;-72
2022/06/26 17:36:36;;;;;;;0.93;0.93;;;;;40.90;96147.00;;;;8380660;28;20200;-73
2022/06/26 17:40:40;;;;;;;1.00;1.00;;;;;41.00;96142.00;;;;8374361;28;20210;-71
2022/06/26 17:44:47;;;;;;;2.72;1.30;;;;;41.20;96139.00;;;;8375269;28;20195;-72
2022/06/26 17:48:50;;;;;;;0.90;0.90;;;;;41.40;96139.00;;;;8367349;28;20202;-73
2022/06/26 17:52:57;;;;;;;1.00;1.00;;;;;41.40;96142.00;;;;8379499;28;20195;-72
2022/06/26 17:57:01;;;;;;;0.85;0.85;;;;;41.00;96146.00;;;;8375456;28;20204;-71
2022/06/26 18:01:08;;;;;;;1.05;0.90;;;;;39.90;96156.00;;;;8370097;28;20794;-72
2022/06/26 18:05:12;;;;;;;1.75;0.90;;;;;38.50;96157.00;;;;8369766;28;20236;-71
2022/06/26 18:09:15;;;;;;;1.05;1.05;;;;;37.30;96159.00;;;;8374005;28;22206;-72
2022/06/26 18:13:18;;;;;;;0.98;0.98;;;;;36.20;96159.00;;;;8374759;28;20589;-71
2022/06/26 18:17:23;;;;;;;1.00;1.00;;;;;35.10;96161.00;;;;8380480;28;20887;-71
2022/06/26 18:21:27;;;;;;;1.20;1.10;;;;;34.10;96155.00;;;;8377929;28;20315;-73
2022/06/26 18:25:30;;;;;;;1.20;1.20;;;;;33.10;96162.00;;;;8371394;28;20783;-72
2022/06/26 18:29:34;;;;;;;1.48;1.40;;;;;32.20;96157.00;;;;8373796;28;20207;-71
2022/06/26 18:33:39;;;;;;;1.10;1.10;;;;;31.50;96158.00;;;;8375052;28;20200;-72
2022/06/26 18:37:44;;;;;;;2.80;1.33;;;;;30.90;96154.00;;;;8376100;28;20596;-72
2022/06/26 18:41:47;;;;;;;2.90;1.50;;;;;30.30;96155.00;;;;8378450;28;20460;-71
2022/06/26 18:45:50;;;;;;;6.07;1.50;;;;;30.00;96154.00;;;;8373937;28;20298;-72
2022/06/26 18:49:55;;;;;;;1.13;1.13;;;;;29.80;96159.00;;;;8369988;28;20626;-72
2022/06/26 18:53:58;;;;;;;2.17;1.20;;;;;29.70;96161.00;;;;8380152;28;20203;-70
2022/06/26 18:58:02;;;;;;;1.50;1.40;;;;;29.50;96153.00;;;;8378366;28;20388;-70
2022/06/26 19:02:05;;;;;;;3.22;1.60;;;;;29.30;96156.00;;;;8378596;28;20390;-68
2022/06/26 19:06:10;;;;;;;1.50;1.45;;;;;29.10;96164.00;;;;8379281;28;20636;-69
2022/06/26 19:10:35;;;;;;;1.30;1.30;;;;;28.80;96167.00;;;;8377803;28;20809;-69
2022/06/26 19:14:41;;;;;;;1.50;1.40;;;;;28.30;96159.00;;;;8380766;28;20569;-72
2022/06/26 19:18:45;;;;;;;1.88;1.75;;;;;27.70;96165.00;;;;8375079;28;20299;-70
2022/06/26 19:22:49;;;;;;;1.30;1.30;;;;;27.20;96163.00;;;;8383762;28;20872;-71
2022/06/26 19:26:53;;;;;;;1.85;1.75;;;;;26.70;96155.00;;;;8382882;28;20262;-75
2022/06/26 19:30:58;;;;;;;1.70;1.60;;;;;26.20;96163.00;;;;8381701;28;20200;-73
2022/06/26 19:35:01;;;;;;;1.85;1.70;;;;;25.90;96159.00;;;;8382961;28;20829;-73
2022/06/26 19:39:06;;;;;;;1.60;1.60;;;;;25.50;96157.00;;;;8382317;28;20987;-74
2022/06/26 19:43:09;;;;;;;1.60;1.50;;;;;25.20;96156.00;;;;8382447;28;20561;-75
2022/06/26 19:47:13;;;;;;;1.80;1.70;;;;;25.00;96160.00;;;;8382776;28;20230;-74
2022/06/26 19:51:16;;;;;;;1.70;1.60;;;;;24.90;96158.00;;;;8377394;28;20600;-74
2022/06/26 19:55:22;;;;;;;5.45;1.70;;;;;24.80;96149.00;;;;8383301;28;20204;-75
2022/06/26 19:59:25;;;;;;;5.57;1.60;;;;;24.60;96153.00;;;;8382011;28;20278;-74
2022/06/26 20:07:51;;;;;;;2.20;1.63;;;;;24.30;96151.00;;;;8381026;28;20223;-73
2022/06/26 20:12:16;;;;;;;1.83;1.70;;;;;24.20;96150.00;;;;8381972;28;20258;-76
2022/06/26 20:16:19;;;;;;;1.70;1.65;;;;;24.10;96155.00;;;;8378993;28;20207;-73
2022/06/26 20:20:23;;;;;;;2.25;2.05;;;;;24.00;96150.00;;;;8382169;28;20200;-74
2022/06/26 20:24:26;;;;;;;3.00;1.92;;;;;24.00;96137.00;;;;8385815;28;20295;-74
2022/06/26 20:28:31;;;;;;;1.90;1.80;;;;;23.90;96146.00;;;;8382653;28;20743;-73
2022/06/26 20:32:34;;;;;;;2.47;1.80;;;;;23.80;96149.00;;;;8382651;28;20279;-74
2022/06/26 20:36:38;;;;;;;1.95;1.80;;;;;23.70;96140.00;;;;8378967;28;20204;-74
2022/06/26 20:40:41;;;;;;;4.00;1.95;;;;;23.70;96152.00;;;;8381665;28;20206;-75
2022/06/26 20:44:46;;;;;;;1.95;1.85;;;;;23.60;96145.00;;;;8383974;28;20924;-76
2022/06/26 20:48:49;;;;;;;2.00;1.85;;;;;23.50;96151.00;;;;8375799;28;20609;-75